Terminal Aerodrome Forecast
Issued by NWS

Home | Current Version | Previous Version | Text Only | Print | Product List | Glossary On
Versions: 1 2 3 4 5 6 7 8 9 10 11 12 13
000
FTAK31 PAFA 282335
TAFAMC
TAF
PAMC 282335Z 2900/2924 18005KT P6SM SCT040 OVC090
     FM290600 24006KT 6SM -SHRA SCT025 BKN035 OVC050
     FM291200 22009KT 6SM -RA BR OVC015
     FM291500 22010KT 4SM -RA BR OVC015=

USA.gov is the U.S. government's official web portal to all federal, state and local government web resources and services.